createdAt,value
2023-01-09T00:00:56.645Z,7.90
2023-01-09T00:03:23.239Z,10.27
2023-01-09T00:05:49.776Z,7.57
2023-01-09T00:08:16.361Z,8.35
2023-01-09T00:10:42.909Z,9.60
2023-01-09T00:13:12.522Z,9.57
2023-01-09T00:15:40.627Z,8.60
2023-01-09T00:18:07.288Z,11.18
2023-01-09T00:20:33.797Z,10.70
2023-01-09T00:23:00.327Z,7.32
2023-01-09T00:25:26.990Z,10.77
2023-01-09T00:27:53.574Z,9.05
2023-01-09T00:30:20.256Z,8.77
2023-01-09T00:32:46.834Z,8.05
2023-01-09T00:35:16.823Z,9.13
2023-01-09T00:37:43.815Z,11.77
2023-01-09T00:40:12.779Z,8.13
2023-01-09T00:42:39.478Z,8.43
2023-01-09T00:45:11.616Z,8.25
2023-01-09T00:47:42.976Z,8.05
2023-01-09T00:50:18.127Z,7.20
2023-01-09T00:52:46.228Z,6.03
2023-01-09T00:55:14.142Z,6.45
2023-01-09T00:57:40.912Z,6.25
2023-01-09T01:00:09.527Z,10.70
2023-01-09T01:02:36.453Z,7.22
2023-01-09T01:05:21.920Z,6.25
2023-01-09T01:07:48.711Z,11.10
2023-01-09T01:10:20.495Z,9.00
2023-01-09T01:12:49.172Z,9.82
2023-01-09T01:15:16.858Z,8.02
2023-01-09T01:17:43.995Z,11.35
2023-01-09T01:20:13.776Z,6.65
2023-01-09T01:22:42.406Z,10.32
2023-01-09T01:25:10.388Z,10.90
2023-01-09T01:27:37.063Z,8.98
2023-01-09T01:30:04.541Z,10.52
2023-01-09T01:32:31.057Z,8.52
2023-01-09T01:34:57.629Z,9.35
2023-01-09T01:37:24.669Z,11.20
2023-01-09T01:39:52.196Z,9.60
2023-01-09T01:42:18.846Z,8.10
2023-01-09T01:44:59.022Z,6.90
2023-01-09T01:47:44.041Z,9.38
2023-01-09T01:50:22.648Z,7.47
2023-01-09T01:52:56.102Z,8.23
2023-01-09T01:55:23.459Z,10.30
2023-01-09T01:57:55.484Z,7.90
2023-01-09T02:00:29.551Z,9.27
2023-01-09T02:02:56.241Z,8.80
2023-01-09T02:05:23.494Z,7.50
2023-01-09T02:07:50.069Z,11.40
2023-01-09T02:10:17.823Z,9.45
2023-01-09T02:12:44.342Z,9.43
2023-01-09T02:15:14.180Z,9.00
2023-01-09T02:17:40.650Z,6.72
2023-01-09T02:20:24.346Z,9.02
2023-01-09T02:23:25.022Z,8.77
2023-01-09T02:26:06.714Z,8.15
2023-01-09T02:29:24.244Z,6.35
2023-01-09T02:32:03.027Z,8.95
2023-01-09T02:34:36.841Z,8.82
2023-01-09T02:37:27.149Z,7.15
2023-01-09T02:40:15.116Z,5.72
2023-01-09T02:42:43.069Z,8.80
2023-01-09T02:45:09.890Z,8.10
2023-01-09T02:47:39.486Z,7.90
2023-01-09T02:50:10.359Z,7.68
2023-01-09T02:53:07.685Z,8.77
2023-01-09T02:55:37.078Z,8.80
2023-01-09T02:58:06.525Z,7.82
2023-01-09T03:00:45.487Z,7.28
2023-01-09T03:03:17.859Z,5.93
2023-01-09T03:06:07.604Z,6.75
2023-01-09T03:08:41.877Z,6.75
2023-01-09T03:11:09.090Z,6.47
2023-01-09T03:13:47.383Z,8.40
2023-01-09T03:16:19.287Z,5.93
2023-01-09T03:18:49.211Z,8.73
2023-01-09T03:21:17.061Z,8.15
2023-01-09T03:23:58.481Z,6.30
2023-01-09T03:26:25.606Z,5.97
2023-01-09T03:28:52.501Z,5.22
2023-01-09T03:31:19.138Z,6.05
2023-01-09T03:33:45.944Z,7.80
2023-01-09T03:36:14.585Z,8.27
2023-01-09T03:38:41.267Z,5.47
2023-01-09T03:41:08.179Z,8.55
2023-01-09T03:43:35.463Z,5.95
2023-01-09T03:46:02.760Z,8.02
2023-01-09T03:48:29.367Z,6.65
2023-01-09T03:50:56.291Z,5.85
2023-01-09T03:53:24.990Z,4.95
2023-01-09T03:55:53.924Z,5.18
2023-01-09T03:58:21.391Z,5.78
2023-01-09T04:00:49.091Z,5.72
2023-01-09T04:03:17.250Z,7.43
2023-01-09T04:05:45.405Z,6.63
2023-01-09T04:08:12.007Z,5.88
2023-01-09T04:10:38.600Z,5.75
2023-01-09T04:13:05.127Z,6.07
2023-01-09T04:15:31.693Z,7.53
2023-01-09T04:17:58.214Z,6.15
2023-01-09T04:20:24.737Z,6.82
2023-01-09T04:22:51.281Z,5.47
2023-01-09T04:25:17.890Z,5.22
2023-01-09T04:27:44.408Z,6.30
2023-01-09T04:30:11.423Z,4.70
2023-01-09T04:32:38.014Z,8.02
2023-01-09T04:35:04.974Z,5.40
2023-01-09T04:37:31.581Z,6.05
2023-01-09T04:39:58.102Z,6.85
2023-01-09T04:42:24.969Z,4.65
2023-01-09T04:44:53.884Z,9.05
2023-01-09T04:47:21.358Z,5.68
2023-01-09T04:49:47.917Z,7.70
2023-01-09T04:52:14.616Z,6.70
2023-01-09T04:54:41.200Z,7.65
2023-01-09T04:57:07.791Z,5.82
2023-01-09T04:59:34.623Z,7.55
2023-01-09T05:02:01.612Z,5.78
2023-01-09T05:04:28.336Z,5.57
2023-01-09T05:06:54.985Z,6.50
2023-01-09T05:09:22.250Z,6.80
2023-01-09T05:11:49.328Z,6.38
2023-01-09T05:14:16.102Z,5.72
2023-01-09T05:16:42.641Z,6.20
2023-01-09T05:19:09.218Z,6.43
2023-01-09T05:21:35.854Z,6.10
2023-01-09T05:24:02.473Z,6.97
2023-01-09T05:26:29.133Z,8.25
2023-01-09T05:28:58.710Z,7.13
2023-01-09T05:31:26.969Z,8.15
2023-01-09T05:33:54.140Z,6.85
2023-01-09T05:36:20.942Z,7.35
2023-01-09T05:38:47.473Z,8.32
2023-01-09T05:41:14.020Z,6.32
2023-01-09T05:43:40.904Z,6.88
2023-01-09T05:46:07.531Z,7.10
2023-01-09T05:48:34.133Z,7.03
2023-01-09T05:51:00.741Z,8.48
2023-01-09T05:53:27.295Z,7.35
2023-01-09T05:55:53.847Z,7.63
2023-01-09T05:58:20.409Z,6.15
2023-01-09T06:00:46.904Z,7.40
2023-01-09T06:03:13.444Z,6.97
2023-01-09T06:05:40.032Z,6.25
2023-01-09T06:08:06.537Z,5.13
2023-01-09T06:10:33.048Z,8.13
2023-01-09T06:12:59.596Z,7.25
2023-01-09T06:15:26.126Z,9.20
2023-01-09T06:17:52.795Z,5.75
2023-01-09T06:20:19.628Z,8.55
2023-01-09T06:22:46.225Z,7.03
2023-01-09T06:25:13.351Z,7.50
2023-01-09T06:27:40.044Z,6.30
2023-01-09T06:30:07.543Z,6.57
2023-01-09T06:32:34.083Z,7.18
2023-01-09T06:35:00.724Z,8.02
2023-01-09T06:37:27.283Z,6.50
2023-01-09T06:39:54.746Z,7.38
2023-01-09T06:42:22.106Z,6.20
2023-01-09T06:44:48.722Z,7.03
2023-01-09T06:47:15.281Z,6.55
2023-01-09T06:49:41.854Z,8.48
2023-01-09T06:52:08.407Z,8.43
2023-01-09T06:54:35.223Z,8.75
2023-01-09T06:57:02.021Z,8.10
2023-01-09T06:59:28.538Z,8.90
2023-01-09T07:01:55.804Z,11.48
2023-01-09T07:04:23.009Z,7.78
2023-01-09T07:06:49.814Z,7.25
2023-01-09T07:09:16.393Z,7.03
2023-01-09T07:11:42.953Z,6.38
2023-01-09T07:14:09.506Z,7.20
2023-01-09T07:16:36.059Z,6.03
2023-01-09T07:19:02.637Z,8.13
2023-01-09T07:21:30.840Z,9.20
2023-01-09T07:23:58.494Z,8.05
2023-01-09T07:26:25.061Z,5.68
2023-01-09T07:28:51.586Z,5.28
2023-01-09T07:31:18.215Z,7.50
2023-01-09T07:33:44.757Z,7.53
2023-01-09T07:36:11.538Z,6.60
2023-01-09T07:38:38.121Z,7.82
2023-01-09T07:41:04.822Z,8.82
2023-01-09T07:43:31.387Z,8.25
2023-01-09T07:45:58.030Z,6.47
2023-01-09T07:48:24.679Z,10.10
2023-01-09T08:05:20.976Z,9.88
2023-01-09T08:07:48.055Z,9.13
2023-01-09T08:10:14.885Z,7.75
2023-01-09T08:12:44.456Z,6.43
2023-01-09T08:15:11.687Z,8.27
2023-01-09T08:17:40.869Z,8.02
2023-01-09T08:20:07.658Z,8.55
2023-01-09T08:22:34.246Z,9.32
2023-01-09T08:25:00.766Z,8.15
2023-01-09T08:27:27.307Z,5.97
2023-01-09T08:29:53.860Z,9.45
2023-01-09T08:32:20.370Z,7.93
2023-01-09T08:34:46.915Z,7.55
2023-01-09T08:37:13.483Z,7.40
2023-01-09T08:39:40.063Z,6.80
2023-01-09T08:42:25.060Z,8.63
2023-01-09T08:45:10.390Z,7.13
2023-01-09T08:47:37.006Z,5.93
2023-01-09T08:50:04.443Z,8.05
2023-01-09T08:52:31.080Z,8.20
2023-01-09T08:54:57.979Z,7.72
2023-01-09T08:57:24.613Z,6.78
2023-01-09T08:59:51.381Z,7.93
2023-01-09T09:02:17.963Z,6.97
2023-01-09T09:04:44.581Z,6.88
2023-01-09T09:07:11.117Z,7.18
2023-01-09T09:09:37.631Z,6.75
2023-01-09T09:12:04.427Z,6.65
2023-01-09T09:14:49.627Z,7.32
2023-01-09T09:17:16.197Z,8.15
2023-01-09T09:19:42.796Z,9.20
2023-01-09T09:22:09.358Z,7.68
2023-01-09T09:24:35.888Z,6.88
2023-01-09T09:27:02.630Z,5.80
2023-01-09T09:29:29.201Z,5.70
2023-01-09T09:31:55.722Z,7.97
2023-01-09T09:34:23.330Z,7.70
2023-01-09T09:36:50.486Z,7.40
2023-01-09T09:39:17.086Z,6.25
2023-01-09T09:42:28.059Z,6.43
2023-01-09T09:45:31.348Z,6.88
2023-01-09T09:48:22.721Z,7.53
2023-01-09T09:51:06.209Z,6.38
2023-01-09T09:53:40.303Z,6.03
2023-01-09T09:56:12.611Z,5.78
2023-01-09T09:58:42.448Z,8.57
2023-01-09T10:01:14.087Z,7.07
2023-01-09T10:03:52.428Z,8.00
2023-01-09T10:06:31.160Z,7.78
2023-01-09T10:09:09.800Z,5.82
2023-01-09T10:12:10.503Z,9.45
2023-01-09T10:14:37.052Z,7.63
2023-01-09T10:17:27.699Z,8.50
2023-01-09T10:20:00.345Z,5.57
2023-01-09T10:22:50.880Z,6.00
2023-01-09T10:25:48.810Z,7.53
2023-01-09T10:30:56.166Z,5.65
2023-01-09T10:36:54.067Z,7.05
2023-01-09T10:39:26.416Z,5.65
2023-01-09T10:42:02.054Z,6.22
2023-01-09T10:44:46.239Z,6.70
2023-01-09T10:47:21.261Z,5.97
2023-01-09T10:49:51.945Z,8.07
2023-01-09T10:52:20.651Z,7.55
2023-01-09T10:54:56.420Z,5.93
2023-01-09T10:57:29.898Z,5.55
2023-01-09T10:59:57.019Z,6.50
2023-01-09T11:02:33.455Z,6.47
2023-01-09T11:05:03.588Z,5.32
2023-01-09T11:07:40.433Z,6.57
2023-01-09T11:10:13.307Z,5.90
2023-01-09T11:12:43.583Z,5.60
2023-01-09T11:15:16.661Z,5.75
2023-01-09T11:17:44.435Z,6.85
2023-01-09T11:20:20.170Z,6.25
2023-01-09T11:22:53.791Z,5.85
2023-01-09T11:25:26.491Z,4.68
2023-01-09T11:28:12.457Z,7.93
2023-01-09T11:31:04.544Z,6.65
2023-01-09T11:33:43.374Z,5.40
2023-01-09T11:36:16.021Z,5.95
2023-01-09T11:39:03.143Z,5.85
2023-01-09T11:41:39.089Z,5.28
2023-01-09T11:46:43.946Z,6.70
2023-01-09T11:49:24.159Z,4.15
2023-01-09T11:52:20.723Z,6.25
2023-01-09T11:54:59.348Z,5.00
2023-01-09T11:57:27.589Z,7.38
2023-01-09T12:00:02.525Z,4.38
2023-01-09T12:03:07.972Z,4.82
2023-01-09T12:05:55.595Z,4.60
2023-01-09T12:08:46.560Z,5.47
2023-01-09T12:11:44.102Z,7.65
2023-01-09T12:14:30.078Z,5.28
2023-01-09T12:17:41.064Z,6.32
2023-01-09T12:20:55.757Z,6.10
2023-01-09T12:23:32.259Z,6.32
2023-01-09T12:26:03.439Z,5.95
2023-01-09T12:28:54.788Z,7.32
2023-01-09T12:31:43.449Z,6.85
2023-01-09T12:34:29.130Z,6.70
2023-01-09T12:37:20.889Z,7.72
2023-01-09T12:40:06.331Z,7.85
2023-01-09T12:43:02.163Z,5.53
2023-01-09T12:45:42.605Z,7.20
2023-01-09T12:48:54.776Z,6.97
2023-01-09T12:51:36.416Z,5.90
2023-01-09T12:54:19.510Z,7.20
2023-01-09T12:56:55.389Z,8.90
2023-01-09T13:01:50.348Z,6.63
2023-01-09T13:04:31.859Z,6.00
2023-01-09T13:07:16.484Z,9.95
2023-01-09T13:09:49.835Z,6.88
2023-01-09T13:12:21.600Z,7.82
2023-01-09T13:15:15.743Z,6.57
2023-01-09T13:18:21.631Z,6.40
2023-01-09T13:20:52.085Z,5.82
2023-01-09T13:23:33.646Z,6.05
2023-01-09T13:26:04.939Z,6.53
2023-01-09T13:28:37.145Z,8.45
2023-01-09T13:31:23.987Z,7.57
2023-01-09T13:33:56.012Z,6.90
2023-01-09T13:36:33.606Z,6.50
2023-01-09T13:39:01.725Z,6.80
2023-01-09T13:41:48.486Z,5.00
2023-01-09T13:44:17.726Z,7.43
2023-01-09T13:46:52.916Z,6.30
2023-01-09T13:49:53.090Z,7.88
2023-01-09T13:52:38.519Z,5.90
2023-01-09T13:55:25.360Z,5.53
2023-01-09T13:58:09.185Z,8.40
2023-01-09T14:00:50.130Z,7.10
2023-01-09T14:03:33.518Z,7.00
2023-01-09T14:06:00.712Z,6.28
2023-01-09T14:08:30.294Z,9.52
2023-01-09T14:11:01.295Z,10.20
2023-01-09T14:13:58.069Z,11.13
2023-01-09T14:16:27.581Z,7.43
2023-01-09T14:19:02.770Z,9.30
2023-01-09T14:21:45.705Z,8.23
2023-01-09T14:24:41.156Z,7.70
2023-01-09T14:27:46.774Z,6.88
2023-01-09T14:30:26.411Z,8.98
2023-01-09T14:33:05.034Z,7.10
2023-01-09T14:36:06.308Z,7.00
2023-01-09T14:38:41.659Z,6.25
2023-01-09T14:41:48.606Z,6.72
2023-01-09T14:44:40.883Z,6.82
2023-01-09T14:47:18.865Z,5.72
2023-01-09T14:50:06.854Z,7.60
2023-01-09T14:52:45.188Z,6.47
2023-01-09T14:55:30.616Z,8.00
2023-01-09T14:58:11.171Z,8.55
2023-01-09T15:00:47.421Z,8.60
2023-01-09T15:03:14.294Z,6.07
2023-01-09T15:05:42.887Z,8.27
2023-01-09T15:08:17.475Z,7.95
2023-01-09T15:10:47.881Z,7.70
2023-01-09T15:13:27.855Z,6.22
2023-01-09T15:15:55.525Z,8.43
2023-01-09T15:18:28.411Z,8.75
2023-01-09T15:21:00.846Z,8.38
2023-01-09T15:23:30.509Z,7.25
2023-01-09T15:26:11.716Z,8.48
2023-01-09T15:28:43.093Z,8.82
2023-01-09T15:31:23.310Z,8.85
2023-01-09T15:33:53.839Z,7.35
2023-01-09T15:36:31.257Z,6.00
2023-01-09T15:39:01.908Z,6.63
2023-01-09T20:14:02.903Z,3.92
2023-01-09T20:16:30.601Z,3.80
2023-01-09T20:18:59.911Z,3.67
2023-01-09T20:21:27.647Z,4.68
2023-01-09T20:23:59.116Z,3.80
2023-01-09T20:26:25.996Z,3.85
2023-01-09T20:28:53.729Z,2.92
2023-01-09T20:31:22.645Z,3.67
2023-01-09T20:33:51.157Z,3.33
2023-01-09T20:36:21.632Z,4.32
2023-01-09T20:38:48.257Z,3.60
2023-01-09T20:41:23.158Z,4.05
2023-01-09T20:43:50.258Z,2.72
2023-01-09T20:46:17.060Z,3.03
2023-01-09T20:48:43.719Z,5.53
2023-01-09T20:51:12.131Z,3.05
2023-01-09T20:53:39.009Z,3.35
2023-01-09T20:56:07.402Z,3.05
2023-01-09T20:58:34.438Z,2.88
2023-01-09T21:01:09.736Z,2.83
2023-01-09T21:03:36.599Z,3.88
2023-01-09T21:06:12.652Z,3.65
2023-01-09T21:08:40.021Z,3.85
2023-01-09T21:11:06.579Z,2.90
2023-01-09T21:13:33.160Z,3.03
2023-01-09T21:16:01.258Z,3.40
2023-01-09T21:18:28.342Z,3.20
2023-01-09T21:20:55.149Z,2.75
2023-01-09T21:23:21.936Z,3.22
2023-01-09T21:25:48.892Z,3.25
2023-01-09T21:28:17.625Z,2.67
2023-01-09T21:30:49.355Z,3.03
2023-01-09T21:33:21.611Z,3.13
2023-01-09T21:35:55.819Z,3.08
2023-01-09T21:38:24.290Z,2.72
2023-01-09T21:40:52.010Z,2.78
2023-01-09T21:43:48.012Z,2.38
2023-01-09T21:46:35.339Z,2.60
2023-01-09T21:49:06.331Z,3.10
2023-01-09T21:51:38.756Z,2.72
